KAMG/AMG METAR and TAF weather

Enter ICAO airport designator
Station Type Date Time Source
KAMG METAR 2019/12/07 09:53 UTC NOAA

KAMG 070953Z AUTO 00000KT 10SM OVC048 11/08 A3017 RMK AO2 SLP214 T01110083


Station Type Date Time Source
KAMG Decoded METAR 2019/12/07 09:53 UTC NOAA

ALMA BACON COUNTY AIRPORT, GA, United States (KAMG) 31-32N 82-30W 59M
Dec 07, 2019 - 04:53 AM EST / 2019.12.07 0953 UTC
Wind: Calm:0
Visibility: 10 mile(s):0
Sky conditions: overcast
Temperature: 52.0 F (11.1 C)
Dew Point: 46.9 F (8.3 C)
Relative Humidity: 82%
Pressure (altimeter): 30.17 in. Hg (1021 hPa)
ob: KAMG 070953Z AUTO 00000KT 10SM OVC048 11/08 A3017 RMK AO2 SLP214 T01110083
cycle: 10

Station Type Date Time Source
KAMG TAF UTC NOAA

Error!

Example: see airport list